Ana Sayfa
METAR-TAF:

METAR-TAF

Havaalanları :

Santoron, Yunanistan

Enlem: 36-24N, Boylam: 025-29E, yükseklik: 38 m

Güncel hava durumu gözlemi

Rapor saat 08:50 UTC de 34 dakika önce yapıldı.
Rüzgar batı/güneybatıdan 9 kt
Sıcaklık 21°C
Nem 64%
Basınç 1014 hPa
Görüş mesafesi 10 km veya daha fazla
2500 ft yükseklikte parçalı bulutlu

METAR: LGSR 190850Z 24009KT 9999 SCT025 21/14 Q1014 RMK BKN080 BKN180 BLU

Saat: 11:24 (09:24 UTC)

Tahmin

Rapor saat 05:00 UTC de 4 saat ve 24 dakika önce yapıldı.
Ayın 19'si saat 06 UTC'den ayın 20'si saat 06 UTC'ye kadar geçerli Tahmin
Rüzgar güneybatıdan 15 kt
Görüş mesafesi 10 km veya daha fazla
2500 ft yükseklikte parçalı bulutlu
Dönüşüyor
ayın 19'si saat 16 UTC'den ayın 19'si saat 18 UTC'ye kadar
Rüzgar değişken yönden 5 kt

TAF: LGSR 190500Z 1906/2006 22015KT 9999 SCT025 BECMG 1916/1918 VRB05KT

4.000'den fazla havaalanı için hava durumu gözlemleri ve tahminleri (METAR ve TAF raporları).

Kullanılabilir istasyonlar harita üzerinde sarı ve kırmızı noktalarla gösterilir.

İstasyonun adını görmek için fareyi noktanın üzerinde gezdirin.

Sonrasında hava gözlem ve tahminlerini görmek için tıklayın.

Haritayı değiştirmek için: yaklaştırmak için siyah artı işaretli yeşil düğmeye ve uzaklaştırmak için de eksi işaretli düğmeye hızla tıklayın; bitişik haritalar için yeşil okları kullanın.


METAR-TAF: